McMinnville, OR (97128)

2:10 PM PDT on March 27, 2017 (GMT -0700)
Saylor's Addition | | Change Station

Elev 154 ft 45.21 °N, 123.20 °W | Updated 31 seconds ago

Partly Cloudy
Partly Cloudy
55.5 °F
Feels Like 55.5 °F
N
4.0
Wind Variable Wind from SSW

Today
High -- | Low -- °F
--% Chance of Precip.
Yesterday
High -- | Low -- °F
Precip. -- in
Pressure 30.23 in
Visibility 10.0 miles
Clouds Few 2700 ft
Dew Point 46 °F
Humidity 71%
Rainfall 0.20 in
Snow Depth Not available.
7:01 AM 7:34 PM
Waning Crescent, 0% visible
METAR KMMV 272053Z AUTO 26016KT 10SM FEW027 12/06 A3023 RMK AO2 SLP235 60007 T01220056 51022
Pressure 30.23 in
Visibility 10.0 miles
Clouds Few 2700 ft
Dew Point 46 °F
Humidity 71%
Rainfall 0.20 in
Snow Depth Not available.
7:01 AM 7:34 PM
Waning Crescent, 0% visible
METAR KMMV 272053Z AUTO 26016KT 10SM FEW027 12/06 A3023 RMK AO2 SLP235 60007 T01220056 51022

Get Severe Weather Alerts

Thanks for signing up!

Be on the lookout for a verification email in your inbox.

You'll start receiving the daily forecast at 8 AM.

×

10-Day Weather Forecast

Almanac

Astronomy

Mar. 27, 2017 Rise Set
Actual Time
Civil Twilight
Nautical Twilight
Astronomical Twilight
Moon
Length of Visible Light
Length of Day
Tomorrow will be .
, % of the Moon is Illuminated

Today's Extremes

State Highs State Lows

Community

WunderPhotos

Upload Photos

1,962,540 photos uploaded!

WunderBlog® & News

Nearby

Air Quality

  Air Quality AQ Index Pollutant
Not available.

Snow Depth

Station Depth Elevation

Earthquake Activity

City Distance Mag. Time & Date
Minimum magnitude displayed is 2.5.

Earthquake Activity

City Distance Mag. Time & Date
Minimum magnitude displayed is 2.5.

Coastal Water Temperatures

Place Temperature

Stations

Nearby Weather Stations

Station Location Temp. Windchill Dew Point Humidity Wind Precip. Elev Updated Type
                   

Watches & Warnings

There are currently no watches in effect.